Novorossiyka, Russia
Current Conditions -  °F | °C
As of 5:30 AM on Saturday 22 Nov 2014 (Local Time) from UHBB Reporting Station
Clear Clear  
Wind Chill:   Ceiling: Unl
Heat Index:   Visibility: 6mi
Dew Point:   Wind: 4mph
Humidity: 100%   Direction: NA
Pressure: 29.97"   Gusts: NA
Location:  52.15°N, 129.47°E
Report Text: UHBB 212030Z VRB02MPS CAVOK M13/M13 Q1015 NOSIG RMK QFE743/099136491035
Loading
Personal Weather Stations






























Interactive Weather Map New forecast layout! Learn more

10-Day Weather Forecast

Advertisements
Track Severe Weather on mobile